M I D A S
Marine Information and Data Acquisition System
Tripno 2238 of the Zeeleeuw from 2011-09-09 06:38:40 to 2011-09-09 13:12:56
Back to CruiseResearch ActivitiesStationsMapUnderway DataData graphs

EquipmentUnitsComment
TimeDGPSUTC
LatitudeDGPSDM.mWGS84
LongitudeDGPSDM.mWGS84
HeadingGyrodeg 
SOGDGPSknotsSpeed over ground
COGDGPSdegCourse over ground
DepthEcho soundermeters200 kHz
Missing or incorrect values are displayed as -999
Navigation data collected by the RV Zeeleeuw from 2011-09-09 06:28:33 to 2011-09-09 13:12:09
Time Latitude Longitude Heading SOG COG Depth
2011-09-09 06:29:41 51°13.643 2°55.984 109 3.7 292 -999
2011-09-09 06:30:42 51°13.672 2°55.877 119.6 4.7 299 -999
2011-09-09 06:31:42 51°13.724 2°55.771 132.9 5.4 314 -999
2011-09-09 06:32:42 51°13.792 2°55.67 141.1 5.7 321 -999
2011-09-09 06:33:42 51°13.871 2°55.605 165.3 5.1 344 -999
2011-09-09 06:34:42 51°13.942 2°55.602 193.6 3.5 10 11.7
2011-09-09 06:35:40 51°13.975 2°55.616 222.2 0.4 304 11.7
2011-09-09 06:36:40 51°13.98 2°55.572 291.9 2.8 299 11.5
2011-09-09 06:37:39 51°14.03 2°55.518 331.7 4.5 333 10.9
2011-09-09 06:38:39 51°14.107 2°55.455 332.9 5.7 333 11.2
2011-09-09 06:39:39 51°14.2 2°55.376 331.6 7 332 11.2
2011-09-09 06:40:39 51°14.307 2°55.277 329.7 8.1 330 11.2
2011-09-09 06:41:39 51°14.443 2°55.146 326.8 10.5 326 10.5
2011-09-09 06:42:39 51°14.597 2°54.966 326 12.2 322 11.9
2011-09-09 06:43:39 51°14.76 2°54.761 322.4 12.5 320 11.9
2011-09-09 06:44:39 51°14.925 2°54.562 325.2 12.4 323 12
2011-09-09 06:45:39 51°15.083 2°54.353 322.3 12.2 323 11.9
2011-09-09 06:46:39 51°15.244 2°54.153 325.2 12.3 322 12
2011-09-09 06:47:39 51°15.405 2°53.949 324 12.3 323 12.2
2011-09-09 06:48:39 51°15.57 2°53.752 324.3 12.4 322 12.4
2011-09-09 06:49:39 51°15.737 2°53.564 330.2 12.3 329 12.5
2011-09-09 06:50:39 51°15.914 2°53.404 339.3 12.2 336 12.8
2011-09-09 06:51:39 51°16.096 2°53.264 335.2 12.1 333 12.2
2011-09-09 06:52:39 51°16.275 2°53.114 335.5 12.2 333 12.4
2011-09-09 06:53:38 51°16.459 2°52.997 341.6 12.1 340 12.3
2011-09-09 06:54:39 51°16.646 2°52.866 335.4 12.1 332 11.8
2011-09-09 06:55:38 51°16.824 2°52.736 340 11.9 337 10.2
2011-09-09 06:56:39 51°17.009 2°52.611 340.2 12 337 10.3
2011-09-09 06:57:39 51°17.188 2°52.48 338.6 11.9 336 10.5
2011-09-09 06:58:39 51°17.365 2°52.338 334.2 11.9 331 10.9
2011-09-09 06:59:39 51°17.532 2°52.165 329 12 327 12.1
2011-09-09 07:00:39 51°17.699 2°51.993 332.3 11.9 330 11.1
2011-09-09 07:01:39 51°17.863 2°51.817 326.3 12 323 10.7
2011-09-09 07:02:38 51°18.021 2°51.631 327.2 12 325 11.2
2011-09-09 07:03:39 51°18.195 2°51.463 332.6 12 328 12.2
2011-09-09 07:04:38 51°18.356 2°51.282 326.9 12.1 324 13.5
2011-09-09 07:05:39 51°18.522 2°51.093 326.6 12 322 14.3
2011-09-09 07:06:39 51°18.688 2°50.912 332.5 12 329 15
2011-09-09 07:07:39 51°18.852 2°50.727 326.6 12.2 322 15.2
2011-09-09 07:08:39 51°19.02 2°50.549 331.9 12 328 14.6
2011-09-09 07:09:39 51°19.184 2°50.362 326.2 12.1 324 13.7
2011-09-09 07:10:39 51°19.347 2°50.172 326.9 12.1 324 12.2
2011-09-09 07:11:39 51°19.518 2°50 332.4 12.3 328 13.6
2011-09-09 07:12:39 51°19.689 2°49.826 330.4 12.2 325 15.2
2011-09-09 07:13:39 51°19.854 2°49.634 326.5 12.3 322 17.2
2011-09-09 07:14:39 51°20.016 2°49.437 328.9 12.2 324 19.4
2011-09-09 07:15:39 51°20.183 2°49.249 329.7 12.3 326 22.5
2011-09-09 07:16:38 51°20.348 2°49.07 331.5 12.2 326 23.2
2011-09-09 07:17:39 51°20.515 2°48.873 326.9 12.3 322 23.2
2011-09-09 07:18:39 51°20.681 2°48.685 332.5 12.2 328 22.8
2011-09-09 07:19:39 51°20.847 2°48.498 327.9 12.3 323 21.4
2011-09-09 07:20:38 51°21.008 2°48.307 327.5 12.2 323 20.7
2011-09-09 07:21:39 51°21.179 2°48.121 332.2 12.3 328 22.1
2011-09-09 07:22:39 51°21.352 2°47.946 332 12.3 327 21.3
2011-09-09 07:23:39 51°21.519 2°47.756 326.4 12.4 323 23.4
2011-09-09 07:24:39 51°21.69 2°47.578 330.3 12.2 326 25
2011-09-09 07:25:39 51°21.857 2°47.389 327.9 12.3 325 25
2011-09-09 07:26:39 51°22.027 2°47.21 331.9 12.2 328 24.3
2011-09-09 07:27:39 51°22.195 2°47.027 327.4 12.2 323 22.3
2011-09-09 07:28:39 51°22.355 2°46.828 327.7 12.1 325 18.2
2011-09-09 07:29:39 51°22.522 2°46.646 331.8 12.1 328 19.9
2011-09-09 07:30:39 51°22.692 2°46.47 330.2 12.2 326 22.5
2011-09-09 07:31:39 51°22.856 2°46.279 327.5 12.2 325 24.3
2011-09-09 07:32:39 51°23.021 2°46.091 330.6 12.2 327 22.1
2011-09-09 07:33:39 51°23.188 2°45.906 326.7 12.3 321 27.2
2011-09-09 07:34:39 51°23.341 2°45.689 322.7 12.3 319 27.3
2011-09-09 07:35:39 51°23.499 2°45.481 324.6 12.2 320 27.6
2011-09-09 07:36:39 51°23.646 2°45.254 319.9 12.4 315 27.3
2011-09-09 07:37:39 51°23.791 2°45.022 318.2 12.4 315 27.6
2011-09-09 07:38:39 51°23.938 2°44.794 318 12.3 314 27.8
2011-09-09 07:39:39 51°24.097 2°44.592 331.2 12.2 328 24
2011-09-09 07:40:38 51°24.257 2°44.423 328.6 9.9 324 26.6
2011-09-09 07:41:39 51°24.368 2°44.289 328.7 7.4 324 21.5
2011-09-09 07:42:39 51°24.464 2°44.175 327 7 321 24.2
2011-09-09 07:43:39 51°24.555 2°44.054 324.6 7.2 319 26.2
2011-09-09 07:44:39 51°24.642 2°43.927 322 7.1 318 26.1
2011-09-09 07:45:39 51°24.712 2°43.808 309 4.5 300 25.4
2011-09-09 07:46:39 51°24.718 2°43.771 328.6 0.6 190 23.1
2011-09-09 07:47:42 51°24.714 2°43.765 340.8 0.4 191 -999
2011-09-09 07:48:42 51°24.688 2°43.767 358 1.9 177 -999
2011-09-09 07:49:41 51°24.66 2°43.766 6.8 1.5 183 23.7
2011-09-09 07:50:39 51°24.658 2°43.764 344 1.1 332 24.1
2011-09-09 07:51:39 51°24.674 2°43.735 308.5 1.4 302 24.4
2011-09-09 07:52:39 51°24.675 2°43.727 304.9 0.2 143 22.5
2011-09-09 07:53:39 51°24.671 2°43.732 318 0.3 146 24.8
2011-09-09 07:54:39 51°24.668 2°43.735 326.9 0.2 140 24.9
2011-09-09 07:55:39 51°24.67 2°43.733 320.7 0.4 304 24.9
2011-09-09 07:56:39 51°24.674 2°43.721 303.7 0.4 286 22.4
2011-09-09 07:57:39 51°24.674 2°43.712 300.3 0.2 276 23.7
2011-09-09 07:58:39 51°24.674 2°43.709 303.7 0.1 231 24.8
2011-09-09 07:59:39 51°24.673 2°43.71 309 0.1 137 23.9
2011-09-09 08:00:39 51°24.671 2°43.714 314.9 0.2 128 21.8
2011-09-09 08:01:39 51°24.669 2°43.719 320.1 0.2 123 21.9
2011-09-09 08:02:39 51°24.672 2°43.718 320.7 0.4 315 22.4
2011-09-09 08:03:39 51°24.675 2°43.714 316.5 0.2 323 23.8
2011-09-09 08:04:39 51°24.677 2°43.713 312.9 -999 189 24.9
2011-09-09 08:05:39 51°24.675 2°43.715 312.5 0.3 126 24.6
2011-09-09 08:06:39 51°24.673 2°43.721 318.7 0.2 121 22.5
2011-09-09 08:07:39 51°24.672 2°43.726 320.5 0.2 136 22.8
2011-09-09 08:08:39 51°24.672 2°43.731 316.5 0.1 355 24.4
2011-09-09 08:09:39 51°24.675 2°43.725 302.9 0.4 298 23.1
2011-09-09 08:10:39 51°24.676 2°43.719 298.5 0.1 129 22.3
2011-09-09 08:11:39 51°24.675 2°43.725 307.2 0.4 99 22.9
2011-09-09 08:12:39 51°24.675 2°43.732 315.9 0.2 14 23.8
2011-09-09 08:13:39 51°24.678 2°43.735 316.9 0.3 65 24
2011-09-09 08:14:39 51°24.673 2°43.748 327.4 0.8 133 24.1
2011-09-09 08:15:39 51°24.671 2°43.758 330.9 0.7 355 24
2011-09-09 08:16:39 51°24.685 2°43.726 286.2 2.1 286 24.8
2011-09-09 08:17:39 51°24.679 2°43.676 249.3 1.1 248 22
2011-09-09 08:18:39 51°24.681 2°43.685 246.1 0.4 72 24.2
2011-09-09 08:19:39 51°24.681 2°43.688 240.6 0.2 181 24.4
2011-09-09 08:20:39 51°24.679 2°43.691 234.7 0.3 108 24.8
2011-09-09 08:21:39 51°24.679 2°43.7 233.1 0.3 108 24.9
2011-09-09 08:22:39 51°24.675 2°43.704 219.6 0.3 113 24.8
2011-09-09 08:23:39 51°24.673 2°43.715 209.8 0.5 99 22
2011-09-09 08:24:39 51°24.673 2°43.729 201.5 0.5 81 24.4
2011-09-09 08:25:39 51°24.675 2°43.744 189.9 0.6 79 24.7
2011-09-09 08:26:39 51°24.678 2°43.761 172.4 0.6 69 23.8
2011-09-09 08:27:39 51°24.664 2°43.803 115.8 3.6 110 24.7
2011-09-09 08:28:39 51°24.691 2°43.942 61.4 8.1 65 23
2011-09-09 08:29:39 51°24.754 2°44.187 67.2 11 70 25.2
2011-09-09 08:30:39 51°24.846 2°44.467 54.4 12.4 55 27.9
2011-09-09 08:31:39 51°24.964 2°44.745 55 12.6 55 28.2
2011-09-09 08:32:39 51°25.083 2°45.02 55.4 12.6 57 26.8
2011-09-09 08:33:39 51°25.21 2°45.285 45.7 12.5 47 27
2011-09-09 08:34:39 51°25.359 2°45.515 41.5 12.5 44 26
2011-09-09 08:35:38 51°25.509 2°45.742 41.5 12.6 43 27.1
2011-09-09 08:36:39 51°25.658 2°45.982 42.9 12.5 46 23.9
2011-09-09 08:37:39 51°25.801 2°46.221 44.1 12.4 46 25
2011-09-09 08:38:39 51°25.947 2°46.459 44.2 12.5 46 26.3
2011-09-09 08:39:38 51°26.086 2°46.702 47.4 12.7 49 26.7
2011-09-09 08:40:39 51°26.24 2°46.931 35.4 12.5 38 24.5
2011-09-09 08:41:39 51°26.41 2°47.125 35.7 12.6 37 24.8
2011-09-09 08:42:39 51°26.576 2°47.327 37.1 12.6 38 26.3
2011-09-09 08:43:38 51°26.735 2°47.535 39.3 12.4 39 27.2
2011-09-09 08:44:38 51°26.898 2°47.742 33.8 12.6 35 26.5
2011-09-09 08:45:39 51°27.072 2°47.937 33.7 12.5 35 28.2
2011-09-09 08:46:39 51°27.238 2°48.141 38 12.6 39 28.2
2011-09-09 08:47:39 51°27.401 2°48.353 36.8 12.7 38 28.3
2011-09-09 08:48:39 51°27.567 2°48.563 38.8 12.6 40 28.7
2011-09-09 08:49:39 51°27.732 2°48.77 34.5 12.7 36 26.4
2011-09-09 08:50:39 51°27.899 2°48.975 36.1 12.6 39 26.4
2011-09-09 08:51:39 51°28.067 2°49.182 34.1 12.7 36 29.6
2011-09-09 08:52:38 51°28.233 2°49.387 36.9 12.9 38 30.8
2011-09-09 08:53:39 51°28.401 2°49.605 36 12.7 38 31.8
2011-09-09 08:54:39 51°28.57 2°49.807 35.6 12.7 37 27.9
2011-09-09 08:55:38 51°28.735 2°50.012 34.9 12.8 38 29.2
2011-09-09 08:56:39 51°28.906 2°50.223 34.7 12.8 37 27.7
2011-09-09 08:57:39 51°29.081 2°50.417 33.3 12.7 33 29.3
2011-09-09 08:58:39 51°29.259 2°50.603 30.7 12.8 32 29.8
2011-09-09 08:59:39 51°29.434 2°50.798 35.2 12.9 37 32
2011-09-09 09:00:39 51°29.61 2°50.994 31.4 12.8 33 31.3
2011-09-09 09:01:39 51°29.784 2°51.188 34.5 12.7 36 31.8
2011-09-09 09:02:39 51°29.961 2°51.375 28.9 12.7 31 31
2011-09-09 09:03:39 51°30.148 2°51.531 24.2 12.6 26 28
2011-09-09 09:04:38 51°30.331 2°51.683 27.8 12.7 29 27.7
2011-09-09 09:05:39 51°30.514 2°51.856 29.7 12.4 29 20.8
2011-09-09 09:06:38 51°30.693 2°52.014 24.2 12.5 24 22.9
2011-09-09 09:07:39 51°30.879 2°52.177 28.5 12.6 31 22.9
2011-09-09 09:08:39 51°31.046 2°52.321 23.7 8.9 26 20.5
2011-09-09 09:09:39 51°31.142 2°52.407 28.9 5.4 33 22.8
2011-09-09 09:10:39 51°31.211 2°52.492 35.2 5.2 41 23.2
2011-09-09 09:11:39 51°31.269 2°52.581 41.6 4.3 46 23.6
2011-09-09 09:12:39 51°31.308 2°52.654 46.1 3.2 52 24.3
2011-09-09 09:13:39 51°31.353 2°52.694 355.7 2.8 8 21.5
2011-09-09 09:14:39 51°31.387 2°52.674 303.2 2 317 23.7
2011-09-09 09:15:39 51°31.397 2°52.631 262.5 1.8 267 23.4
2011-09-09 09:16:39 51°31.379 2°52.58 228.6 2.9 226 20.6
2011-09-09 09:17:39 51°31.33 2°52.522 216.5 4.1 212 24.4
2011-09-09 09:18:39 51°31.283 2°52.494 202.2 2.4 187 21.6
2011-09-09 09:19:39 51°31.255 2°52.501 184.1 1.1 138 22.5
2011-09-09 09:20:40 51°31.266 2°52.524 165.5 1.1 40 -999
2011-09-09 09:21:40 51°31.278 2°52.542 148.1 0.8 44 24.3
2011-09-09 09:22:38 51°31.281 2°52.552 169.4 0.3 94 24.2
2011-09-09 09:23:39 51°31.277 2°52.561 204.2 0.4 148 24.2
2011-09-09 09:24:39 51°31.271 2°52.566 222.2 0.3 167 24.1
2011-09-09 09:25:39 51°31.266 2°52.566 237.3 0.1 194 24.1
2011-09-09 09:26:39 51°31.268 2°52.565 254.5 0.2 340 24
2011-09-09 09:27:39 51°31.272 2°52.563 260.9 0.3 330 24
2011-09-09 09:28:39 51°31.274 2°52.56 250.8 0.2 309 24.5
2011-09-09 09:29:39 51°31.274 2°52.559 239.4 0.1 156 24.4
2011-09-09 09:30:39 51°31.273 2°52.561 232.2 0.2 76 24.3
2011-09-09 09:31:39 51°31.272 2°52.565 235 0.2 115 24.1
2011-09-09 09:32:39 51°31.27 2°52.566 239 0.1 227 24.1
2011-09-09 09:33:39 51°31.269 2°52.566 240.3 0.1 186 24.2
2011-09-09 09:34:39 51°31.269 2°52.566 242.5 -999 59 24.2
2011-09-09 09:35:39 51°31.27 2°52.566 244.8 0.1 15 24.3
2011-09-09 09:36:39 51°31.272 2°52.566 247.3 -999 335 24.2
2011-09-09 09:37:39 51°31.272 2°52.566 241.9 0.1 159 24.3
2011-09-09 09:38:39 51°31.271 2°52.566 239 -999 96 24.3
2011-09-09 09:39:39 51°31.27 2°52.568 238.4 0.1 50 24.3
2011-09-09 09:40:39 51°31.271 2°52.568 243 0.1 13 24
2011-09-09 09:41:39 51°31.27 2°52.568 243.4 -999 294 24.2
2011-09-09 09:42:39 51°31.27 2°52.567 239.6 0.1 196 24.2
2011-09-09 09:43:39 51°31.269 2°52.569 237.4 -999 38 23.9
2011-09-09 09:44:39 51°31.269 2°52.568 243.2 0.2 324 24.1
2011-09-09 09:45:39 51°31.27 2°52.566 246.8 0.1 327 24.3
2011-09-09 09:46:39 51°31.272 2°52.566 248.3 0.2 349 24.3
2011-09-09 09:47:39 51°31.273 2°52.566 243.3 -999 260 24.4
2011-09-09 09:48:39 51°31.271 2°52.566 235.2 0.2 153 24.3
2011-09-09 09:49:39 51°31.269 2°52.569 233.8 0.2 113 24.1
2011-09-09 09:50:39 51°31.269 2°52.571 240.6 0.2 322 24.1
2011-09-09 09:51:39 51°31.27 2°52.568 247.3 0.1 312 24.2
2011-09-09 09:52:39 51°31.272 2°52.567 246.1 0.1 333 24.2
2011-09-09 09:53:38 51°31.272 2°52.568 240.3 0.1 100 24.3
2011-09-09 09:54:39 51°31.271 2°52.569 235.8 0.2 164 24.3
2011-09-09 09:55:38 51°31.27 2°52.569 237.5 -999 303 24.2
2011-09-09 09:56:39 51°31.27 2°52.569 241.3 0.1 349 24.1
2011-09-09 09:57:39 51°31.271 2°52.569 242.1 0.1 305 24.3
2011-09-09 09:58:38 51°31.271 2°52.568 241.3 -999 324 24.4
2011-09-09 09:59:39 51°31.271 2°52.567 240.6 -999 214 24.4
2011-09-09 10:00:38 51°31.271 2°52.569 235.2 0.1 80 24.4
2011-09-09 10:01:39 51°31.27 2°52.57 234.3 -999 302 24
2011-09-09 10:02:39 51°31.269 2°52.57 236.2 -999 307 24.3
2011-09-09 10:03:38 51°31.27 2°52.569 241.6 0.1 336 24.2
2011-09-09 10:04:39 51°31.272 2°52.569 244.7 0.1 356 24.3
2011-09-09 10:05:39 51°31.273 2°52.565 241.1 0.2 294 24.6
2011-09-09 10:06:39 51°31.273 2°52.564 237.6 0.1 334 24.3
2011-09-09 10:07:39 51°31.273 2°52.567 234.3 0.2 108 24.3
2011-09-09 10:08:39 51°31.271 2°52.568 233.8 0.1 212 24.4
2011-09-09 10:09:39 51°31.27 2°52.568 233.5 0.1 115 24.2
2011-09-09 10:10:39 51°31.271 2°52.57 237.2 0.1 59 24.4
2011-09-09 10:11:39 51°31.271 2°52.567 240.7 0.2 301 24.4
2011-09-09 10:12:39 51°31.273 2°52.565 241.1 0.2 348 24.2
2011-09-09 10:13:39 51°31.275 2°52.566 237.2 0.1 40 24.3
2011-09-09 10:14:38 51°31.273 2°52.567 231.3 0.1 125 24.4
2011-09-09 10:15:39 51°31.272 2°52.567 231.7 -999 233 24.2
2011-09-09 10:16:39 51°31.272 2°52.568 235.4 -999 48 24.1
2011-09-09 10:17:39 51°31.273 2°52.568 237.9 0.1 331 24.3
2011-09-09 10:18:39 51°31.272 2°52.567 235.9 -999 155 24.3
2011-09-09 10:19:39 51°31.272 2°52.567 234.5 0.1 126 24.3
2011-09-09 10:20:39 51°31.272 2°52.569 232.4 0.1 104 24.3
2011-09-09 10:21:39 51°31.271 2°52.569 234.4 0.1 155 24.2
2011-09-09 10:22:39 51°31.271 2°52.568 236 -999 151 24.4
2011-09-09 10:23:39 51°31.272 2°52.568 236.9 -999 1 24.3
2011-09-09 10:24:39 51°31.273 2°52.567 235.5 0.1 323 24.4
2011-09-09 10:25:39 51°31.269 2°52.557 232.7 0.6 241 24.4
2011-09-09 10:26:39 51°31.262 2°52.544 229.4 0.7 240 23.6
2011-09-09 10:27:38 51°31.256 2°52.534 230.9 0.2 208 21.5
2011-09-09 10:28:39 51°31.257 2°52.538 229.5 0.5 68 22.8
2011-09-09 10:29:39 51°31.262 2°52.554 228.1 0.8 64 24
2011-09-09 10:30:39 51°31.269 2°52.578 228.6 1.2 62 24.1
2011-09-09 10:31:39 51°31.28 2°52.607 222.6 1.3 63 24
2011-09-09 10:32:38 51°31.289 2°52.639 205.6 1.4 65 23.1
2011-09-09 10:33:38 51°31.297 2°52.675 187.7 1.4 75 24.5
2011-09-09 10:34:38 51°31.304 2°52.714 175.9 1.5 77 24
2011-09-09 10:35:39 51°31.309 2°52.756 173.6 1.6 83 23.4
2011-09-09 10:36:39 51°31.308 2°52.794 179.6 1.3 101 22.1
2011-09-09 10:37:39 51°31.3 2°52.829 183.7 1.5 114 22.2
2011-09-09 10:38:38 51°31.289 2°52.862 185 1.4 118 23.1
2011-09-09 10:39:39 51°31.277 2°52.894 188.6 1.3 121 23.2
2011-09-09 10:40:38 51°31.264 2°52.92 192.9 1.3 130 22.9
2011-09-09 10:41:39 51°31.25 2°52.946 193 1.4 135 22.8
2011-09-09 10:42:39 51°31.232 2°52.967 195 1.3 146 23.2
2011-09-09 10:43:39 51°31.214 2°52.987 194.1 1.4 145 23.3
2011-09-09 10:44:39 51°31.193 2°53.005 194.7 1.7 158 23
2011-09-09 10:45:39 51°31.117 2°53.001 191.4 6.7 185 21.8
2011-09-09 10:46:39 51°30.979 2°52.97 192.9 9.7 189 20
2011-09-09 10:47:39 51°30.808 2°52.909 193.7 11 189 22.3
2011-09-09 10:48:39 51°30.623 2°52.895 185.2 11.3 181 26.4
2011-09-09 10:49:38 51°30.437 2°52.886 185.9 11.4 181 30.1
2011-09-09 10:50:37 51°30.252 2°52.857 190.5 11.4 187 32.2
2011-09-09 10:51:38 51°30.06 2°52.842 186.5 11.4 184 31.6
2011-09-09 10:52:37 51°29.875 2°52.82 187.9 11.3 183 32.5
2011-09-09 10:53:38 51°29.687 2°52.787 189.8 11.2 186 33.1
2011-09-09 10:54:37 51°29.503 2°52.769 189.7 11.1 187 32.8
2011-09-09 10:55:38 51°29.316 2°52.72 193.3 11.2 189 31.4
2011-09-09 10:56:37 51°29.135 2°52.688 189.5 11 186 30.4
2011-09-09 10:57:38 51°28.947 2°52.654 193.9 11.2 191 30.3
2011-09-09 10:58:37 51°28.77 2°52.598 192.2 11.3 189 29.9
2011-09-09 10:59:38 51°28.584 2°52.545 195.3 11.2 193 28.8
2011-09-09 11:00:38 51°28.401 2°52.497 191.4 11.1 188 26.3
2011-09-09 11:01:38 51°28.219 2°52.434 196.3 11.3 195 24.5
2011-09-09 11:02:39 51°28.033 2°52.381 190.1 11.2 188 24.8
2011-09-09 11:03:37 51°27.855 2°52.335 193.3 11.2 191 24.2
2011-09-09 11:04:38 51°27.668 2°52.284 191.5 11.3 189 23.3
2011-09-09 11:05:37 51°27.489 2°52.227 196.1 11.2 192 23.8
2011-09-09 11:06:38 51°27.304 2°52.157 195.6 11.1 194 24.2
2011-09-09 11:07:38 51°27.122 2°52.11 190.5 11.2 187 23.1
2011-09-09 11:08:38 51°26.939 2°52.064 195.7 11.1 194 27.7
2011-09-09 11:09:39 51°26.766 2°51.955 208.2 10.9 208 27.9
2011-09-09 11:10:38 51°26.687 2°51.819 245.6 4 252 28.5
2011-09-09 11:11:39 51°26.694 2°51.766 282.1 1.4 349 27.7
2011-09-09 11:12:38 51°26.719 2°51.786 299.1 2 356 27.6
2011-09-09 11:13:39 51°26.741 2°51.768 255.7 0.8 338 27.7
2011-09-09 11:14:38 51°26.753 2°51.778 239.6 1 37 27.6
2011-09-09 11:15:39 51°26.766 2°51.801 232.4 1.1 54 27.3
2011-09-09 11:16:38 51°26.771 2°51.816 222.4 0.2 114 27.5
2011-09-09 11:17:38 51°26.767 2°51.815 227.4 0.3 162 27.5
2011-09-09 11:18:38 51°26.766 2°51.818 229.8 0.1 93 27.6
2011-09-09 11:19:38 51°26.767 2°51.816 237.9 0.1 295 27.6
2011-09-09 11:20:39 51°26.77 2°51.812 240 0.2 314 27.5
2011-09-09 11:21:38 51°26.771 2°51.811 233.4 -999 37 27.2
2011-09-09 11:22:39 51°26.77 2°51.814 226.5 0.2 143 27.4
2011-09-09 11:23:38 51°26.768 2°51.815 228.8 0.1 160 27.4
2011-09-09 11:24:39 51°26.769 2°51.815 235.7 0.2 356 27.4
2011-09-09 11:25:38 51°26.77 2°51.814 235.2 0.1 260 27.4
2011-09-09 11:26:37 51°26.769 2°51.813 228.5 0.1 154 27.4
2011-09-09 11:27:38 51°26.767 2°51.817 227.8 0.1 112 27.2
2011-09-09 11:28:37 51°26.768 2°51.816 232.8 0.1 278 27.4
2011-09-09 11:29:38 51°26.768 2°51.815 231.6 0.1 308 27.3
2011-09-09 11:30:37 51°26.769 2°51.815 233.2 0.1 330 27.2
2011-09-09 11:31:38 51°26.769 2°51.813 232.4 0.1 289 27.4
2011-09-09 11:32:37 51°26.77 2°51.811 231.9 0.1 72 27.1
2011-09-09 11:33:38 51°26.77 2°51.813 228.2 0.1 132 27.4
2011-09-09 11:34:37 51°26.77 2°51.813 230.2 0.1 316 27.3
2011-09-09 11:35:38 51°26.77 2°51.812 233.3 -999 342 27.3
2011-09-09 11:36:39 51°26.769 2°51.813 230.3 -999 226 27.2
2011-09-09 11:37:39 51°26.768 2°51.815 226.8 0.1 160 27.3
2011-09-09 11:38:38 51°26.768 2°51.815 232.3 -999 205 27.4
2011-09-09 11:39:38 51°26.769 2°51.815 232.6 0.1 68 27.5
2011-09-09 11:40:38 51°26.769 2°51.814 231.2 0.1 289 27.4
2011-09-09 11:41:37 51°26.769 2°51.814 231.5 0.1 347 27.2
2011-09-09 11:42:38 51°26.769 2°51.815 232.2 0.1 344 27.2
2011-09-09 11:43:37 51°26.769 2°51.814 228.9 0.1 184 27.3
2011-09-09 11:44:38 51°26.769 2°51.814 229.7 0.1 91 27.4
2011-09-09 11:45:39 51°26.77 2°51.814 233.5 0.1 298 27.2
2011-09-09 11:46:38 51°26.771 2°51.812 234.4 0.1 300 27.2
2011-09-09 11:47:39 51°26.772 2°51.811 230.9 0.1 1 27.2
2011-09-09 11:48:38 51°26.77 2°51.813 223.9 0.2 146 27.2
2011-09-09 11:49:39 51°26.767 2°51.815 224.4 0.3 176 27.1
2011-09-09 11:50:38 51°26.761 2°51.804 229.4 0.6 239 27.3
2011-09-09 11:51:38 51°26.756 2°51.791 231.6 0.4 253 27.4
2011-09-09 11:52:38 51°26.758 2°51.791 232.4 0.5 37 27.4
2011-09-09 11:53:38 51°26.766 2°51.805 233.9 0.8 49 27.2
2011-09-09 11:54:39 51°26.762 2°51.814 205.7 1.7 179 27.5
2011-09-09 11:55:38 51°26.699 2°51.81 198.3 5.9 192 27.4
2011-09-09 11:56:39 51°26.562 2°51.761 192.1 10.1 187 28.1
2011-09-09 11:57:38 51°26.385 2°51.764 179 11.3 174 28.2
2011-09-09 11:58:39 51°26.191 2°51.781 180.5 11.5 176 27.1
2011-09-09 11:59:38 51°26.003 2°51.792 184.4 11.5 183 29.9
2011-09-09 12:00:39 51°25.809 2°51.786 182.7 11.5 179 33.1
2011-09-09 12:01:38 51°25.621 2°51.803 180.5 11.4 178 31.4
2011-09-09 12:02:38 51°25.432 2°51.804 185 11.4 181 26.1
2011-09-09 12:03:38 51°25.244 2°51.815 179.6 11.4 175 24.7
2011-09-09 12:04:38 51°25.055 2°51.827 185 11.3 180 24.4
2011-09-09 12:05:39 51°24.865 2°51.825 185.7 11.1 181 24
2011-09-09 12:06:37 51°24.683 2°51.836 180.1 11.5 176 23.6
2011-09-09 12:07:38 51°24.491 2°51.849 182.7 11.4 180 23.2
2011-09-09 12:08:37 51°24.303 2°51.838 184.9 11.5 182 20.3
2011-09-09 12:09:38 51°24.111 2°51.844 180.1 11.5 177 20.7
2011-09-09 12:10:37 51°23.923 2°51.851 181.7 11.4 180 19.7
2011-09-09 12:11:38 51°23.731 2°51.846 184.6 11.3 183 15.3
2011-09-09 12:12:39 51°23.54 2°51.839 182 11.3 179 17.4
2011-09-09 12:13:38 51°23.354 2°51.854 180.5 11.2 177 16.7
2011-09-09 12:14:39 51°23.163 2°51.858 185 11.3 182 22.5
2011-09-09 12:15:38 51°22.975 2°51.866 180.8 11.4 178 25.4
2011-09-09 12:16:39 51°22.781 2°51.874 183.5 11.4 181 24.5
2011-09-09 12:17:39 51°22.59 2°51.867 183.8 11.6 181 24.5
2011-09-09 12:18:39 51°22.4 2°51.884 178.9 11.6 176 24.6
2011-09-09 12:19:38 51°22.211 2°51.9 183 11.4 180 24.8
2011-09-09 12:20:39 51°22.018 2°51.895 184.7 11.5 182 25.5
2011-09-09 12:21:39 51°21.827 2°51.893 183 11.4 177 25.6
2011-09-09 12:22:38 51°21.639 2°51.914 180.5 11.6 175 24.7
2011-09-09 12:23:39 51°21.445 2°51.926 184.2 11.4 182 22.9
2011-09-09 12:24:38 51°21.258 2°51.928 183 11.5 179 20.8
2011-09-09 12:25:38 51°21.067 2°51.919 184.2 11.5 181 18.8
2011-09-09 12:26:38 51°20.875 2°51.928 182.2 11.4 181 17.1
2011-09-09 12:27:39 51°20.68 2°51.93 178.7 11.7 178 15.9
2011-09-09 12:28:38 51°20.49 2°51.931 181.9 11.7 180 14.9
2011-09-09 12:29:38 51°20.295 2°51.932 183.3 11.8 184 16.1
2011-09-09 12:30:39 51°20.099 2°51.925 181.2 11.7 179 16.9
2011-09-09 12:31:38 51°19.908 2°51.924 184.2 11.5 183 17.1
2011-09-09 12:32:39 51°19.713 2°51.904 184.8 11.5 184 17.5
2011-09-09 12:33:38 51°19.524 2°51.904 179.9 11.6 179 17.3
2011-09-09 12:34:39 51°19.328 2°51.902 180.8 11.6 180 17.2
2011-09-09 12:35:38 51°19.139 2°51.903 179.8 11.6 178 16.3
2011-09-09 12:36:39 51°18.944 2°51.946 173 11.8 172 15.9
2011-09-09 12:37:38 51°18.754 2°51.976 175.6 11.7 173 14.8
2011-09-09 12:38:37 51°18.566 2°52.016 175.9 11.6 175 13.8
2011-09-09 12:39:38 51°18.37 2°52.042 175.7 11.5 174 13.2
2011-09-09 12:40:37 51°18.181 2°52.068 177.1 11.6 175 12.8
2011-09-09 12:41:38 51°17.986 2°52.11 172.1 11.6 171 12.9
2011-09-09 12:42:37 51°17.799 2°52.153 173.4 11.5 173 12.7
2011-09-09 12:43:39 51°17.6 2°52.19 172.1 11.7 170 12.9
2011-09-09 12:44:38 51°17.417 2°52.283 161.4 11.8 161 12.3
2011-09-09 12:45:38 51°17.231 2°52.386 158.4 11.9 156 11.9
2011-09-09 12:46:38 51°17.05 2°52.516 159.9 12 158 11.3
2011-09-09 12:47:37 51°16.877 2°52.658 148.9 12 147 11.2
2011-09-09 12:48:38 51°16.7 2°52.82 156.3 12.2 154 12.5
2011-09-09 12:49:37 51°16.524 2°52.966 156.7 12.1 154 13.4
2011-09-09 12:50:38 51°16.339 2°53.11 157.5 12.3 156 13.5
2011-09-09 12:51:37 51°16.16 2°53.246 156.1 12.1 154 13.3
2011-09-09 12:52:38 51°15.973 2°53.379 155.2 12.3 154 13.2
2011-09-09 12:53:37 51°15.795 2°53.523 154.9 12.2 156 13.7
2011-09-09 12:54:38 51°15.616 2°53.689 144.7 12.3 141 13.6
2011-09-09 12:55:37 51°15.458 2°53.889 143.1 12.2 143 13.5
2011-09-09 12:56:38 51°15.291 2°54.092 145.2 12.4 145 13.1
2011-09-09 12:57:39 51°15.127 2°54.295 140.9 12.2 140 13
2011-09-09 12:58:38 51°14.967 2°54.487 145.7 12 145 13
2011-09-09 12:59:39 51°14.806 2°54.688 141.6 12.1 141 13.3
2011-09-09 13:00:39 51°14.648 2°54.891 142 12.2 144 13.1
2011-09-09 13:01:37 51°14.492 2°55.072 144.1 11.9 148 12.8
2011-09-09 13:02:38 51°14.324 2°55.236 147.8 11.2 149 12.1
2011-09-09 13:03:39 51°14.168 2°55.376 151.5 9.2 154 12.5
2011-09-09 13:04:40 51°14.043 2°55.471 152.8 7.9 154 12.4
2011-09-09 13:05:39 51°13.934 2°55.554 154.2 6.7 156 12.9
2011-09-09 13:06:38 51°13.839 2°55.623 153 6.2 153 12.7
2011-09-09 13:07:39 51°13.757 2°55.718 136.8 5.9 137 12.6
2011-09-09 13:08:38 51°13.697 2°55.825 126.3 5.1 127 12.3
2011-09-09 13:09:38 51°13.655 2°55.929 116.2 4.1 117 12
2011-09-09 13:10:39 51°13.637 2°56.01 105.6 1.9 107 8.6
2011-09-09 13:11:38 51°13.635 2°56.016 128.5 0.3 119 8.3